Time;durP1;ratioP1;P1;durP2;ratioP2;P2;SDS_P1;SDS_P2;PMS_P1;PMS_P2;Temp;Humidity;BMP_temperature;BMP_pressure;BME280_temperature;BME280_humidity;BME280_pressure;Samples;Min_cycle;Max_cycle;Signal;HPM_P1;HPM_P2
2021/05/08 00:01:19;;;;;;;11.63;7.90;;;7.70;87.80;;;;;;5053741;28;20029;-84
2021/05/08 00:03:45;;;;;;;9.82;7.05;;;7.60;88.00;;;;;;5068856;28;20076;-84
2021/05/08 00:06:12;;;;;;;12.15;8.23;;;7.50;88.30;;;;;;5030264;28;20031;-84
2021/05/08 00:08:38;;;;;;;10.88;7.22;;;7.50;88.40;;;;;;5060426;28;20374;-85
2021/05/08 00:11:05;;;;;;;9.35;7.00;;;7.50;88.00;;;;;;5062796;28;20473;-85
2021/05/08 00:13:31;;;;;;;11.02;7.57;;;7.50;88.10;;;;;;5051937;28;20033;-84
2021/05/08 00:15:57;;;;;;;11.57;7.18;;;7.50;88.60;;;;;;5049474;28;20108;-84
2021/05/08 00:18:23;;;;;;;10.18;7.00;;;7.50;89.00;;;;;;5009231;28;20397;-84
2021/05/08 00:20:49;;;;;;;9.73;7.18;;;7.50;88.70;;;;;;5021016;28;20534;-83
2021/05/08 00:23:15;;;;;;;10.13;7.30;;;7.50;89.00;;;;;;5056880;28;20497;-84
2021/05/08 00:25:40;;;;;;;10.52;7.60;;;7.40;89.30;;;;;;5036951;28;20028;-84
2021/05/08 00:28:06;;;;;;;10.57;7.45;;;7.40;89.20;;;;;;5036818;28;20157;-84
2021/05/08 00:30:34;;;;;;;12.63;7.75;;;7.40;88.90;;;;;;5027793;28;20025;-84
2021/05/08 00:33:00;;;;;;;11.48;7.60;;;7.40;89.10;;;;;;5026212;28;20021;-83
2021/05/08 00:35:26;;;;;;;9.68;7.22;;;7.30;89.20;;;;;;5032597;28;20427;-83
2021/05/08 00:37:51;;;;;;;9.75;7.18;;;7.40;88.70;;;;;;5043199;28;20039;-83
2021/05/08 00:40:17;;;;;;;10.07;7.20;;;7.30;88.90;;;;;;5042889;28;20473;-84
2021/05/08 00:42:43;;;;;;;9.45;6.88;;;7.40;89.60;;;;;;5066846;28;20056;-84
2021/05/08 00:45:09;;;;;;;10.15;7.68;;;7.30;89.60;;;;;;5038232;28;20055;-83
2021/05/08 00:47:42;;;;;;;11.43;8.02;;;7.30;89.50;;;;;;5020056;28;20021;-84
2021/05/08 00:50:10;;;;;;;10.20;7.40;;;7.30;89.70;;;;;;5065598;28;20377;-83
2021/05/08 00:52:37;;;;;;;9.57;7.60;;;7.30;89.60;;;;;;5039707;28;20032;-84
2021/05/08 00:55:05;;;;;;;9.70;7.07;;;7.30;89.50;;;;;;5054768;28;20437;-84
2021/05/08 00:57:31;;;;;;;9.68;7.30;;;7.30;89.80;;;;;;5067382;28;20052;-84
2021/05/08 00:59:56;;;;;;;9.20;7.50;;;7.20;89.90;;;;;;5039789;28;20075;-84
2021/05/08 01:02:22;;;;;;;10.63;7.82;;;7.10;89.90;;;;;;5022661;28;20568;-84
2021/05/08 01:04:47;;;;;;;9.68;7.90;;;7.10;90.30;;;;;;5037235;28;20049;-84
2021/05/08 01:07:13;;;;;;;12.35;8.48;;;7.00;90.30;;;;;;5042538;28;20020;-83
2021/05/08 01:09:40;;;;;;;9.70;7.43;;;7.00;90.60;;;;;;5035601;28;20505;-84
2021/05/08 01:12:06;;;;;;;11.18;7.70;;;7.00;90.60;;;;;;5035791;28;20467;-83
2021/05/08 01:14:32;;;;;;;11.98;8.55;;;7.00;90.50;;;;;;5065296;28;20074;-84
2021/05/08 01:16:58;;;;;;;11.30;7.93;;;7.00;90.50;;;;;;5052134;28;20466;-84
2021/05/08 01:19:28;;;;;;;12.68;8.35;;;7.00;90.40;;;;;;5041728;28;20397;-83
2021/05/08 01:21:54;;;;;;;10.95;8.63;;;7.00;90.50;;;;;;5071275;28;20020;-83
2021/05/08 01:24:20;;;;;;;10.73;8.15;;;7.00;90.50;;;;;;5051681;28;20104;-84
2021/05/08 01:26:46;;;;;;;11.77;8.50;;;6.90;90.40;;;;;;5071809;28;20043;-83
2021/05/08 01:29:11;;;;;;;12.20;8.43;;;6.90;90.60;;;;;;5052973;28;20028;-84
2021/05/08 01:31:37;;;;;;;12.45;9.13;;;6.90;90.60;;;;;;5063772;28;20025;-84
2021/05/08 01:34:03;;;;;;;12.05;8.38;;;6.90;90.60;;;;;;5071948;28;20107;-84
2021/05/08 01:36:32;;;;;;;12.57;9.10;;;6.90;90.40;;;;;;5071768;28;20412;-84
2021/05/08 01:38:59;;;;;;;11.02;8.40;;;6.80;90.40;;;;;;5073083;28;20076;-83
2021/05/08 01:41:24;;;;;;;12.77;8.25;;;6.90;90.50;;;;;;5055370;28;20488;-83
2021/05/08 01:43:50;;;;;;;12.10;8.10;;;6.80;90.70;;;;;;5041124;28;20119;-83
2021/05/08 01:46:16;;;;;;;11.95;8.60;;;6.80;90.40;;;;;;5041834;28;20030;-84
2021/05/08 01:48:41;;;;;;;12.40;9.20;;;6.80;90.70;;;;;;5059379;28;20036;-84
2021/05/08 01:51:07;;;;;;;11.48;8.75;;;6.80;90.90;;;;;;5069974;28;20032;-84
2021/05/08 01:53:33;;;;;;;11.27;8.98;;;6.80;90.80;;;;;;5051613;28;20048;-83
2021/05/08 01:55:58;;;;;;;12.80;9.23;;;6.80;91.00;;;;;;5049049;28;20096;-84
2021/05/08 01:58:24;;;;;;;13.55;9.27;;;6.80;91.10;;;;;;5059732;28;20025;-84
2021/05/08 02:00:50;;;;;;;13.68;9.40;;;6.70;91.10;;;;;;5051917;28;20470;-84
2021/05/08 02:03:16;;;;;;;13.15;9.82;;;6.80;91.20;;;;;;5074735;28;20047;-84
2021/05/08 02:05:45;;;;;;;12.30;9.75;;;6.80;91.10;;;;;;5071049;28;20455;-84
2021/05/08 02:08:12;;;;;;;13.07;9.20;;;6.80;91.20;;;;;;5071434;28;20182;-83
2021/05/08 02:10:39;;;;;;;12.45;9.85;;;6.80;91.30;;;;;;5071284;28;20032;-84
2021/05/08 02:13:06;;;;;;;16.83;10.70;;;6.80;91.10;;;;;;5053650;28;20446;-83
2021/05/08 02:15:32;;;;;;;13.40;9.65;;;6.80;91.30;;;;;;5054308;28;20023;-84
2021/05/08 02:17:58;;;;;;;13.02;9.98;;;6.80;91.30;;;;;;5071120;28;20024;-83
2021/05/08 02:20:27;;;;;;;14.55;10.32;;;6.80;91.40;;;;;;5054463;28;20020;-84
2021/05/08 02:22:54;;;;;;;13.25;9.60;;;6.80;91.40;;;;;;5059358;28;20029;-84
2021/05/08 02:25:20;;;;;;;14.27;9.98;;;6.70;91.40;;;;;;5050205;28;20024;-84
2021/05/08 02:27:46;;;;;;;11.45;8.95;;;6.80;91.40;;;;;;5041876;28;20471;-83
2021/05/08 02:30:14;;;;;;;10.98;8.85;;;6.80;91.50;;;;;;5067502;28;20058;-83
2021/05/08 02:32:41;;;;;;;12.90;8.90;;;6.80;91.60;;;;;;5070931;28;20177;-83
2021/05/08 02:35:08;;;;;;;12.23;8.90;;;6.80;91.60;;;;;;5051325;28;20033;-83
2021/05/08 02:37:35;;;;;;;12.13;8.98;;;6.80;91.50;;;;;;5053751;28;20028;-84
2021/05/08 02:40:01;;;;;;;12.07;8.48;;;6.70;91.60;;;;;;5070797;28;20048;-84
2021/05/08 02:42:26;;;;;;;11.00;8.30;;;6.80;91.70;;;;;;5070948;28;20457;-84
2021/05/08 02:44:52;;;;;;;11.98;8.73;;;6.80;91.60;;;;;;5054338;28;20036;-84
2021/05/08 02:47:18;;;;;;;14.18;8.70;;;6.80;91.60;;;;;;5050700;28;20021;-83
2021/05/08 02:49:56;;;;;;;13.93;9.18;;;6.80;91.50;;;;;;5040843;28;20035;-84
2021/05/08 02:52:22;;;;;;;14.65;8.50;;;6.70;91.40;;;;;;5054272;28;20024;-84
2021/05/08 02:54:48;;;;;;;13.90;9.38;;;6.70;91.40;;;;;;5037869;28;20455;-83
2021/05/08 02:57:15;;;;;;;13.50;9.13;;;6.70;91.40;;;;;;5054968;28;20024;-84
2021/05/08 02:59:41;;;;;;;14.25;8.60;;;6.70;91.50;;;;;;5050905;28;20489;-83
2021/05/08 03:02:07;;;;;;;11.38;8.55;;;6.70;91.70;;;;;;5056972;28;20021;-84
2021/05/08 03:04:33;;;;;;;10.80;8.30;;;6.70;91.60;;;;;;5072530;23;20079;-92
2021/05/08 03:07:03;;;;;;;11.65;8.07;;;6.70;91.50;;;;;;5026212;28;20116;-92
2021/05/08 03:09:32;;;;;;;11.63;7.97;;;6.70;91.30;;;;;;5038967;28;20033;-92
2021/05/08 03:11:59;;;;;;;12.70;8.25;;;6.70;91.30;;;;;;5056281;28;20027;-92
2021/05/08 03:14:25;;;;;;;11.85;8.95;;;6.70;91.40;;;;;;5053785;28;20466;-92
2021/05/08 03:16:50;;;;;;;13.10;8.77;;;6.60;91.50;;;;;;5038257;28;20025;-93
2021/05/08 03:19:16;;;;;;;13.30;9.30;;;6.70;91.50;;;;;;5055943;28;20029;-92
2021/05/08 03:21:42;;;;;;;11.57;8.40;;;6.70;91.60;;;;;;5040579;28;20017;-92
2021/05/08 03:24:09;;;;;;;12.50;8.65;;;6.70;91.60;;;;;;5057050;28;20046;-92
2021/05/08 03:26:34;;;;;;;13.88;8.73;;;6.70;91.50;;;;;;5047440;28;20025;-92
2021/05/08 03:29:00;;;;;;;11.90;9.10;;;6.70;91.50;;;;;;5043873;28;20116;-93
2021/05/08 03:31:26;;;;;;;10.70;8.30;;;6.70;91.50;;;;;;5039303;28;20119;-93
2021/05/08 03:33:51;;;;;;;13.65;8.15;;;6.80;91.60;;;;;;5045937;28;20017;-92
2021/05/08 03:36:17;;;;;;;13.45;9.25;;;6.70;91.40;;;;;;5026723;28;20055;-93
2021/05/08 03:38:43;;;;;;;11.05;8.38;;;6.70;91.40;;;;;;5043732;28;20022;-94
2021/05/08 03:41:08;;;;;;;12.98;8.77;;;6.70;91.40;;;;;;5058221;28;20009;-92
2021/05/08 03:43:34;;;;;;;11.80;8.75;;;6.70;91.40;;;;;;5023428;28;20121;-92
2021/05/08 03:46:00;;;;;;;11.90;8.52;;;6.70;91.50;;;;;;5054703;28;20082;-94
2021/05/08 03:48:26;;;;;;;13.23;9.63;;;6.70;91.50;;;;;;5058421;28;20025;-93
2021/05/08 03:50:54;;;;;;;12.95;9.60;;;6.60;91.50;;;;;;5043346;28;20028;-93
2021/05/08 03:53:22;;;;;;;10.57;8.27;;;6.60;91.60;;;;;;5058736;28;20021;-93
2021/05/08 03:55:50;;;;;;;12.90;9.23;;;6.60;91.60;;;;;;5056477;28;20405;-92
2021/05/08 03:58:16;;;;;;;13.38;9.50;;;6.60;91.60;;;;;;5048734;28;20048;-91
2021/05/08 04:00:42;;;;;;;13.70;9.25;;;6.60;91.60;;;;;;5040223;28;20470;-92
2021/05/08 04:03:53;;;;;;;15.18;9.98;;;6.70;91.50;;;;;;5040539;28;20415;-92
2021/05/08 04:06:18;;;;;;;14.05;9.75;;;6.60;91.60;;;;;;5056392;28;20052;-93
2021/05/08 04:08:44;;;;;;;15.02;8.95;;;6.60;91.80;;;;;;5040448;28;20029;-93
2021/05/08 04:11:10;;;;;;;11.65;9.05;;;6.60;91.60;;;;;;5040089;28;20033;-94
2021/05/08 04:13:35;;;;;;;11.98;9.50;;;6.60;91.70;;;;;;5056645;28;20029;-93
2021/05/08 04:16:01;;;;;;;15.38;9.73;;;6.60;91.70;;;;;;5045344;28;20029;-93
2021/05/08 04:18:26;;;;;;;14.52;10.23;;;6.60;91.70;;;;;;5021715;28;20021;-93
2021/05/08 04:20:52;;;;;;;12.85;9.93;;;6.60;91.80;;;;;;5032382;28;20032;-93
2021/05/08 04:23:18;;;;;;;13.27;9.80;;;6.50;91.80;;;;;;5039341;28;20095;-94
2021/05/08 04:25:43;;;;;;;13.90;9.60;;;6.50;91.90;;;;;;5056130;28;20033;-92
2021/05/08 04:28:10;;;;;;;12.70;9.85;;;6.50;92.20;;;;;;5020302;28;20061;-92
2021/05/08 04:30:36;;;;;;;11.75;9.65;;;6.50;92.00;;;;;;5049600;28;20022;-93
2021/05/08 04:33:02;;;;;;;13.20;9.48;;;6.50;92.00;;;;;;5048413;28;20518;-93
2021/05/08 04:35:28;;;;;;;14.88;9.95;;;6.60;92.00;;;;;;5026315;28;20039;-92
2021/05/08 04:37:53;;;;;;;14.13;10.27;;;6.60;92.40;;;;;;5022296;28;20017;-93
2021/05/08 04:40:19;;;;;;;14.25;9.93;;;6.50;92.20;;;;;;5038767;28;20028;-93
2021/05/08 04:42:45;;;;;;;15.40;10.80;;;6.50;92.20;;;;;;5039063;28;20029;-93
2021/05/08 04:45:10;;;;;;;12.10;9.65;;;6.50;92.20;;;;;;5022426;28;20064;-94
2021/05/08 04:47:36;;;;;;;15.32;10.80;;;6.60;92.20;;;;;;5038806;28;20375;-93
2021/05/08 04:50:04;;;;;;;13.05;9.98;;;6.60;92.40;;;;;;5022524;28;20123;-93
2021/05/08 04:52:30;;;;;;;13.93;10.07;;;6.60;92.50;;;;;;5050695;28;20056;-93
2021/05/08 04:54:55;;;;;;;13.27;10.02;;;6.60;92.50;;;;;;5046262;28;20028;-93
2021/05/08 04:57:21;;;;;;;13.73;9.50;;;6.70;92.50;;;;;;5022173;28;20033;-93
2021/05/08 04:59:47;;;;;;;16.70;10.02;;;6.70;92.40;;;;;;5054370;28;20428;-93
2021/05/08 05:02:12;;;;;;;12.30;9.73;;;6.70;92.50;;;;;;5038613;28;20057;-92
2021/05/08 05:04:38;;;;;;;16.02;9.95;;;6.70;92.50;;;;;;5023077;28;20057;-92
2021/05/08 05:07:04;;;;;;;13.30;9.50;;;6.70;92.60;;;;;;5054337;28;20434;-92
2021/05/08 05:12:52;;;;;;;13.50;10.13;;;6.80;92.60;;;;;;5054968;28;20493;-91
2021/05/08 05:15:18;;;;;;;13.70;9.52;;;6.80;92.50;;;;;;5018222;28;20056;-92
2021/05/08 05:17:45;;;;;;;12.65;9.88;;;6.80;92.50;;;;;;5021851;28;20137;-92
2021/05/08 05:20:12;;;;;;;10.60;8.73;;;6.90;92.60;;;;;;5022309;28;20036;-92
2021/05/08 05:22:37;;;;;;;12.30;9.43;;;6.90;92.60;;;;;;5021820;28;20038;-93
2021/05/08 05:25:04;;;;;;;13.43;9.60;;;6.90;92.50;;;;;;5045628;28;20056;-92
2021/05/08 05:27:31;;;;;;;11.98;9.45;;;6.90;92.50;;;;;;5038576;28;20082;-93
2021/05/08 05:29:57;;;;;;;12.80;9.57;;;7.00;92.60;;;;;;5039381;28;20009;-93
2021/05/08 05:32:23;;;;;;;13.77;10.10;;;7.00;92.60;;;;;;5025932;28;20095;-93
2021/05/08 05:34:48;;;;;;;13.80;10.73;;;7.00;92.70;;;;;;5021683;28;20025;-93
2021/05/08 05:37:14;;;;;;;12.10;9.18;;;7.00;92.50;;;;;;5021773;28;20033;-94
2021/05/08 05:39:40;;;;;;;13.70;8.95;;;7.00;92.60;;;;;;5021660;28;20065;-93
2021/05/08 05:42:06;;;;;;;12.95;9.27;;;7.10;92.50;;;;;;5038076;28;20044;-93
2021/05/08 05:44:32;;;;;;;11.88;8.80;;;7.10;92.40;;;;;;5038312;28;20044;-92
2021/05/08 05:46:57;;;;;;;11.93;9.35;;;7.10;92.40;;;;;;5021403;28;20024;-93
2021/05/08 05:49:23;;;;;;;13.65;9.35;;;7.20;92.40;;;;;;5038439;28;20036;-92
2021/05/08 05:51:49;;;;;;;11.60;8.15;;;7.20;92.10;;;;;;5021218;28;20477;-93
2021/05/08 05:54:15;;;;;;;12.05;8.98;;;7.20;92.20;;;;;;5020999;28;20040;-94
2021/05/08 05:56:41;;;;;;;12.27;8.55;;;7.20;91.90;;;;;;5037688;28;20033;-93
2021/05/08 05:59:06;;;;;;;12.68;8.70;;;7.30;92.20;;;;;;5021393;28;20075;-93
2021/05/08 06:01:32;;;;;;;11.27;7.85;;;7.40;92.20;;;;;;5054235;28;20044;-94
2021/05/08 06:03:58;;;;;;;10.10;7.88;;;7.40;92.20;;;;;;5021843;28;20021;-93
2021/05/08 06:06:23;;;;;;;10.50;8.05;;;7.50;92.10;;;;;;5023746;28;20127;-92
2021/05/08 06:08:49;;;;;;;11.05;7.75;;;7.50;92.10;;;;;;5024467;28;20056;-93
2021/05/08 06:11:14;;;;;;;9.57;6.90;;;7.60;92.20;;;;;;5024932;28;20025;-93
2021/05/08 06:13:40;;;;;;;12.30;7.85;;;7.60;92.00;;;;;;5026448;28;20044;-93
2021/05/08 06:16:06;;;;;;;12.10;7.75;;;7.60;91.50;;;;;;5007125;28;20120;-93
2021/05/08 06:18:34;;;;;;;10.70;7.40;;;7.70;91.50;;;;;;5013894;28;20063;-93
2021/05/08 06:21:00;;;;;;;11.07;7.63;;;7.70;91.70;;;;;;5039267;28;20466;-93
2021/05/08 06:23:25;;;;;;;9.32;6.78;;;7.80;91.30;;;;;;5021638;28;20359;-93
2021/05/08 06:25:51;;;;;;;11.07;7.10;;;7.80;91.50;;;;;;5053555;28;20024;-92
2021/05/08 06:28:17;;;;;;;11.63;7.68;;;7.90;90.60;;;;;;5031984;28;20033;-93
2021/05/08 06:30:44;;;;;;;9.75;7.13;;;7.90;90.50;;;;;;5035763;28;20033;-93
2021/05/08 06:33:09;;;;;;;10.40;7.38;;;7.90;90.20;;;;;;5037918;28;20104;-93
2021/05/08 06:35:35;;;;;;;10.70;8.07;;;8.00;88.30;;;;;;5020729;28;20044;-93
2021/05/08 06:38:01;;;;;;;11.13;7.35;;;8.00;87.70;;;;;;5002042;28;20037;-92
2021/05/08 06:40:27;;;;;;;10.82;7.00;;;8.10;90.00;;;;;;5027741;28;20029;-93
2021/05/08 06:42:52;;;;;;;12.15;7.78;;;8.10;89.40;;;;;;5023027;28;20037;-92
2021/05/08 06:45:19;;;;;;;9.30;6.78;;;8.20;88.70;;;;;;5004427;28;20025;-93
2021/05/08 06:47:46;;;;;;;9.40;6.47;;;8.20;87.70;;;;;;5004142;28;20017;-93
2021/05/08 06:50:12;;;;;;;11.50;7.20;;;8.30;90.00;;;;;;5037137;28;20025;-92
2021/05/08 06:52:37;;;;;;;10.45;7.00;;;8.40;89.30;;;;;;5016703;28;20539;-93
2021/05/08 06:55:04;;;;;;;11.45;7.05;;;8.40;90.00;;;;;;5032576;28;20044;-93
2021/05/08 06:57:29;;;;;;;10.85;7.38;;;8.50;90.00;;;;;;5029199;28;20025;-93
2021/05/08 06:59:55;;;;;;;10.95;7.30;;;8.50;90.10;;;;;;5021838;28;20033;-92
2021/05/08 07:02:21;;;;;;;11.30;7.65;;;8.60;89.90;;;;;;4993177;28;20021;-93
2021/05/08 07:04:47;;;;;;;11.75;7.57;;;8.60;88.10;;;;;;5032466;28;20132;-93
2021/05/08 07:07:13;;;;;;;10.43;6.95;;;8.60;88.90;;;;;;5027528;28;20033;-93
2021/05/08 07:09:39;;;;;;;10.45;7.03;;;8.70;90.10;;;;;;5019157;28;20025;-93
2021/05/08 07:12:05;;;;;;;12.82;7.68;;;8.80;89.90;;;;;;5035901;28;20086;-92
2021/05/08 07:14:31;;;;;;;10.23;7.38;;;8.80;88.70;;;;;;5020817;28;20028;-94
2021/05/08 07:16:56;;;;;;;11.02;8.10;;;8.80;87.40;;;;;;5022391;28;20498;-93
2021/05/08 07:19:22;;;;;;;9.82;7.70;;;8.90;88.20;;;;;;5049605;28;20029;-93
2021/05/08 07:21:48;;;;;;;9.20;7.05;;;9.00;89.10;;;;;;5053842;28;20497;-93
2021/05/08 07:24:13;;;;;;;12.13;8.23;;;9.00;88.30;;;;;;5038517;28;20471;-93
2021/05/08 07:26:39;;;;;;;12.48;6.97;;;9.10;89.50;;;;;;5041241;28;20374;-94
2021/05/08 07:29:05;;;;;;;11.43;7.38;;;9.10;87.50;;;;;;5040986;28;20032;-94
2021/05/08 07:31:31;;;;;;;14.50;7.57;;;9.20;85.90;;;;;;5057551;28;20057;-92
2021/05/08 07:33:56;;;;;;;10.32;6.95;;;9.30;85.70;;;;;;5041282;28;20474;-93
2021/05/08 07:36:22;;;;;;;11.20;6.57;;;9.40;85.90;;;;;;5057255;28;20116;-93
2021/05/08 07:38:47;;;;;;;11.35;6.65;;;9.40;84.40;;;;;;5021240;28;20053;-93
2021/05/08 07:41:13;;;;;;;10.15;6.65;;;9.50;84.90;;;;;;5024565;28;20031;-94
2021/05/08 07:43:39;;;;;;;8.18;5.88;;;9.60;84.90;;;;;;5034236;28;20092;-94
2021/05/08 07:46:05;;;;;;;9.88;6.15;;;9.70;84.30;;;;;;5024868;28;20112;-93
2021/05/08 07:48:30;;;;;;;9.48;6.57;;;9.70;82.30;;;;;;5041680;28;20032;-94
2021/05/08 07:50:56;;;;;;;9.65;6.05;;;9.80;83.40;;;;;;5058346;28;20021;-94
2021/05/08 07:53:22;;;;;;;8.50;6.10;;;9.80;81.90;;;;;;5053507;28;20090;-94
2021/05/08 07:55:48;;;;;;;9.95;6.38;;;9.90;81.40;;;;;;5025139;28;20063;-93
2021/05/08 07:58:14;;;;;;;11.38;5.95;;;9.90;81.90;;;;;;5040451;28;20044;-94
2021/05/08 08:00:40;;;;;;;9.95;5.90;;;10.00;82.70;;;;;;5061535;28;20017;-93
2021/05/08 08:03:06;;;;;;;10.57;6.63;;;10.00;81.80;;;;;;5024954;28;20104;-94
2021/05/08 08:05:32;;;;;;;10.32;7.03;;;10.10;81.30;;;;;;5039586;28;20053;-94
2021/05/08 08:07:58;;;;;;;9.40;5.95;;;10.10;81.20;;;;;;5024244;28;20017;-93
2021/05/08 08:10:24;;;;;;;12.38;6.32;;;10.10;81.50;;;;;;5055647;28;20059;-94
2021/05/08 08:12:50;;;;;;;8.77;6.50;;;10.20;80.90;;;;;;5008486;28;20029;-93
2021/05/08 08:15:16;;;;;;;9.98;6.38;;;10.20;80.90;;;;;;5053552;28;20021;-94
2021/05/08 08:17:42;;;;;;;9.45;6.15;;;10.30;81.40;;;;;;5022167;28;20621;-94
2021/05/08 08:20:11;;;;;;;9.90;6.13;;;10.30;81.70;;;;;;5040088;28;20033;-93
2021/05/08 08:22:38;;;;;;;9.38;6.25;;;10.30;81.30;;;;;;5056472;28;20493;-94
2021/05/08 08:25:08;;;;;;;9.00;5.90;;;10.40;82.30;;;;;;5053318;28;20013;-95
2021/05/08 08:27:35;;;;;;;9.02;6.10;;;10.50;81.50;;;;;;5040430;28;20124;-94
2021/05/08 08:30:05;;;;;;;10.07;6.90;;;10.50;82.40;;;;;;5056708;28;20025;-94
2021/05/08 08:32:30;;;;;;;9.35;6.85;;;10.50;82.20;;;;;;5068293;28;20075;-93
2021/05/08 08:34:56;;;;;;;12.02;7.40;;;10.60;82.40;;;;;;5040252;28;20033;-94
2021/05/08 08:37:22;;;;;;;9.02;6.30;;;10.60;82.00;;;;;;5039448;28;20028;-94
2021/05/08 08:39:47;;;;;;;10.70;6.93;;;10.70;81.40;;;;;;5056025;28;20461;-93
2021/05/08 08:42:13;;;;;;;10.73;6.80;;;10.70;80.10;;;;;;5039551;28;20025;-94
2021/05/08 08:44:39;;;;;;;9.95;5.97;;;10.80;79.60;;;;;;5041564;28;20053;-96
2021/05/08 08:47:28;;;;;;;8.45;6.32;;;10.80;80.10;;;;;;5026844;28;20033;-96
2021/05/08 08:50:05;;;;;;;9.07;5.90;;;10.90;79.00;;;;;;5056534;28;20052;-93
2021/05/08 08:52:31;;;;;;;11.13;5.72;;;10.90;79.70;;;;;;5038044;28;20065;-92
2021/05/08 08:54:58;;;;;;;8.35;5.50;;;11.00;80.10;;;;;;5022537;28;20025;-94
2021/05/08 08:57:35;;;;;;;9.48;5.78;;;11.00;79.20;;;;;;5035702;28;20470;-94
2021/05/08 09:00:05;;;;;;;8.63;5.57;;;11.10;79.50;;;;;;5061393;28;20029;-92
2021/05/08 09:02:31;;;;;;;9.40;5.88;;;11.20;78.90;;;;;;5056242;28;20017;-90
2021/05/08 09:04:59;;;;;;;10.55;5.40;;;11.30;78.30;;;;;;5047321;23;20211;-85
2021/05/08 09:07:28;;;;;;;11.52;5.90;;;11.30;76.70;;;;;;4997706;28;20395;-85
2021/05/08 09:09:54;;;;;;;10.27;6.43;;;11.40;76.70;;;;;;5022639;28;20034;-85
2021/05/08 09:12:20;;;;;;;9.48;5.55;;;11.50;76.60;;;;;;5015730;28;20029;-85
2021/05/08 09:14:50;;;;;;;9.25;5.63;;;11.60;76.10;;;;;;5030394;28;20014;-84
2021/05/08 09:17:17;;;;;;;12.07;5.78;;;11.60;75.90;;;;;;5014447;28;20025;-86
2021/05/08 09:19:45;;;;;;;9.15;5.60;;;11.70;74.50;;;;;;5015344;28;20040;-85
2021/05/08 09:22:30;;;;;;;10.68;5.63;;;11.70;74.70;;;;;;5034931;28;20355;-85
2021/05/08 09:25:00;;;;;;;9.48;5.47;;;11.80;74.60;;;;;;5022610;28;20479;-85
2021/05/08 09:27:33;;;;;;;9.80;5.50;;;11.90;74.70;;;;;;5042378;28;20026;-85
2021/05/08 09:30:09;;;;;;;8.85;5.45;;;12.00;73.60;;;;;;5033442;28;20029;-86
2021/05/08 09:32:43;;;;;;;8.63;5.25;;;12.10;75.30;;;;;;5034458;28;20028;-85
2021/05/08 09:35:17;;;;;;;7.90;4.93;;;12.20;74.60;;;;;;5033048;28;20026;-85
2021/05/08 09:37:43;;;;;;;8.48;5.07;;;12.20;74.90;;;;;;5031549;28;20108;-86
2021/05/08 09:40:25;;;;;;;9.57;5.00;;;12.30;75.30;;;;;;5031562;28;20118;-86
2021/05/08 09:42:54;;;;;;;7.32;3.97;;;12.40;72.40;;;;;;5016614;28;20521;-85
2021/05/08 09:45:21;;;;;;;6.68;4.15;;;12.50;71.80;;;;;;5031190;28;20068;-85
2021/05/08 09:47:47;;;;;;;11.25;4.90;;;12.60;71.70;;;;;;5031465;28;20471;-85
2021/05/08 09:50:14;;;;;;;9.63;4.25;;;12.70;71.30;;;;;;4999273;28;20035;-85
2021/05/08 09:52:47;;;;;;;7.18;4.15;;;12.70;72.50;;;;;;5032018;28;20425;-84
2021/05/08 09:55:14;;;;;;;8.40;4.40;;;12.80;72.80;;;;;;5005588;28;20041;-85
2021/05/08 09:57:40;;;;;;;8.13;4.50;;;12.80;71.50;;;;;;4999056;28;20486;-84
2021/05/08 10:00:29;;;;;;;10.43;4.68;;;12.90;72.70;;;;;;5032759;28;20036;-85
2021/05/08 10:03:01;;;;;;;7.95;4.28;;;13.00;72.80;;;;;;5031551;28;20108;-86
2021/05/08 10:06:02;;;;;;;8.48;4.03;;;13.10;71.90;;;;;;5033632;28;20091;-85
2021/05/08 10:08:28;;;;;;;7.10;3.78;;;13.20;71.20;;;;;;5031188;28;20029;-85
2021/05/08 10:10:54;;;;;;;7.13;4.20;;;13.20;70.60;;;;;;5014415;28;20025;-87
2021/05/08 10:13:21;;;;;;;8.48;3.85;;;13.30;70.20;;;;;;5012239;28;20427;-86
2021/05/08 10:15:48;;;;;;;7.90;4.05;;;13.30;71.20;;;;;;5032948;28;20028;-85
2021/05/08 10:18:14;;;;;;;5.25;3.25;;;13.40;70.60;;;;;;5014714;28;20037;-85
2021/05/08 10:20:41;;;;;;;7.03;3.70;;;13.40;68.30;;;;;;4999547;28;20498;-85
2021/05/08 10:23:12;;;;;;;4.85;2.50;;;13.50;68.40;;;;;;5015265;28;20497;-84
2021/05/08 10:25:39;;;;;;;4.97;2.60;;;13.50;66.60;;;;;;5032304;28;20406;-84
2021/05/08 10:28:05;;;;;;;6.15;3.05;;;13.60;67.60;;;;;;5014451;28;20032;-85
2021/05/08 10:30:41;;;;;;;6.95;2.53;;;13.60;67.60;;;;;;5028898;28;20479;-85
2021/05/08 10:33:07;;;;;;;4.72;1.95;;;13.60;66.90;;;;;;5012688;28;20026;-85
2021/05/08 10:35:38;;;;;;;3.85;2.22;;;13.60;65.60;;;;;;5031351;28;20474;-86
2021/05/08 10:38:35;;;;;;;4.88;2.35;;;13.50;64.90;;;;;;5031229;28;20033;-86
2021/05/08 10:41:11;;;;;;;5.50;2.50;;;13.50;67.40;;;;;;5013385;28;20045;-85
2021/05/08 10:43:53;;;;;;;5.80;2.72;;;13.50;68.30;;;;;;5010417;28;20832;-86
2021/05/08 10:46:24;;;;;;;7.28;2.80;;;13.50;66.90;;;;;;5014242;28;20025;-85
2021/05/08 10:49:12;;;;;;;;;;;13.50;69.40;;;;;;5030945;28;20029;-84
2021/05/08 10:51:56;;;;;;;4.28;2.42;;;13.60;68.90;;;;;;5027372;28;19909;-85
2021/05/08 10:54:41;;;;;;;6.97;3.15;;;13.60;69.20;;;;;;5030823;28;20025;-85
2021/05/08 10:57:30;;;;;;;5.40;2.88;;;13.60;68.40;;;;;;5041304;28;20030;-86
2021/05/08 11:00:04;;;;;;;5.85;2.75;;;13.60;69.30;;;;;;5032147;28;20028;-86
2021/05/08 11:02:45;;;;;;;5.72;2.67;;;13.60;69.50;;;;;;5032108;28;20100;-86
2021/05/08 11:05:21;;;;;;;5.53;3.30;;;13.70;67.70;;;;;;5047765;28;20048;-85
2021/05/08 11:07:46;;;;;;;5.05;3.08;;;13.70;68.00;;;;;;5009554;28;20045;-85
2021/05/08 11:10:31;;;;;;;4.65;2.80;;;13.60;69.40;;;;;;5035224;28;20029;-85
2021/05/08 11:13:11;;;;;;;6.25;3.42;;;13.60;70.00;;;;;;5034734;28;20585;-84
2021/05/08 11:18:37;;;;;;;5.03;3.17;;;13.40;70.20;;;;;;5036091;28;20378;-85
2021/05/08 11:21:15;;;;;;;6.32;2.75;;;13.40;70.30;;;;;;5037700;28;20056;-84
2021/05/08 11:24:08;;;;;;;6.25;3.10;;;13.30;70.90;;;;;;5035935;28;20022;-84
2021/05/08 11:26:42;;;;;;;7.40;2.67;;;13.30;71.30;;;;;;5046920;28;20033;-84
2021/05/08 11:29:14;;;;;;;5.32;2.65;;;13.20;71.00;;;;;;5035877;28;20038;-84
2021/05/08 11:31:51;;;;;;;6.10;2.72;;;13.20;72.20;;;;;;5036254;28;20056;-85
2021/05/08 11:34:18;;;;;;;6.03;2.88;;;13.20;71.20;;;;;;5003772;28;20061;-84
2021/05/08 11:37:01;;;;;;;5.47;2.60;;;13.20;71.80;;;;;;5033450;28;20036;-84
2021/05/08 11:39:37;;;;;;;4.72;2.42;;;13.10;74.30;;;;;;5034687;28;20112;-85
2021/05/08 11:42:10;;;;;;;5.03;2.60;;;13.10;75.50;;;;;;5011453;28;20034;-84
2021/05/08 11:44:37;;;;;;;6.53;3.20;;;13.00;75.50;;;;;;5045540;28;20100;-84
2021/05/08 11:50:04;;;;;;;3.95;2.42;;;13.00;80.50;;;;;;5035987;28;20033;-84
2021/05/08 11:52:41;;;;;;;5.40;2.85;;;12.90;80.40;;;;;;5033107;28;20030;-84
2021/05/08 11:55:12;;;;;;;6.10;2.72;;;12.80;80.70;;;;;;5035054;28;20025;-83
2021/05/08 11:57:40;;;;;;;6.18;2.90;;;12.70;81.80;;;;;;5035464;28;20029;-84
2021/05/08 12:00:27;;;;;;;4.93;3.17;;;12.70;82.80;;;;;;5035233;28;20390;-84
2021/05/08 12:03:14;;;;;;;5.55;2.97;;;12.60;83.50;;;;;;5035702;28;20029;-84
2021/05/08 12:05:42;;;;;;;4.53;3.13;;;12.50;82.80;;;;;;5034380;28;20053;-84
2021/05/08 12:08:08;;;;;;;6.85;2.70;;;12.40;84.70;;;;;;5033349;28;20030;-84
2021/05/08 12:10:38;;;;;;;4.13;3.00;;;12.40;86.30;;;;;;5014079;28;20490;-85
2021/05/08 12:13:05;;;;;;;7.35;3.25;;;12.30;85.20;;;;;;5028102;28;20072;-84
2021/05/08 12:15:32;;;;;;;6.38;3.33;;;12.20;86.30;;;;;;5033902;28;20053;-83
2021/05/08 12:18:00;;;;;;;4.80;3.17;;;12.20;87.50;;;;;;5033769;28;20092;-82
2021/05/08 12:20:27;;;;;;;4.75;3.28;;;12.10;88.10;;;;;;5035015;28;20060;-81
2021/05/08 12:22:56;;;;;;;6.30;3.20;;;12.00;88.40;;;;;;5034170;28;20109;-82
2021/05/08 12:25:24;;;;;;;5.13;3.42;;;12.00;89.40;;;;;;5035246;28;20415;-81
2021/05/08 12:28:12;;;;;;;7.13;3.97;;;11.90;89.90;;;;;;5035161;28;20463;-81
2021/05/08 12:30:38;;;;;;;7.38;3.38;;;11.90;90.10;;;;;;5020479;28;20025;-81
2021/05/08 12:33:04;;;;;;;6.85;3.60;;;11.80;90.70;;;;;;5032273;28;20382;-81
2021/05/08 12:35:29;;;;;;;5.88;3.55;;;11.80;90.80;;;;;;5015205;28;20029;-81
2021/05/08 12:37:55;;;;;;;5.70;3.50;;;11.80;90.90;;;;;;5004651;28;20018;-81
2021/05/08 12:40:31;;;;;;;5.95;3.95;;;11.80;91.60;;;;;;5031704;28;20068;-81
2021/05/08 12:42:57;;;;;;;5.63;3.50;;;11.80;92.00;;;;;;5018234;28;20032;-81
2021/05/08 12:45:23;;;;;;;4.97;3.58;;;11.80;92.10;;;;;;5015862;28;20112;-82
2021/05/08 12:47:49;;;;;;;7.03;4.20;;;11.80;92.30;;;;;;5033103;28;20101;-81
2021/05/08 12:50:26;;;;;;;6.43;3.83;;;11.80;92.70;;;;;;5030750;28;20072;-81
2021/05/08 12:52:59;;;;;;;9.65;4.70;;;11.90;92.60;;;;;;5031269;28;20478;-82
2021/05/08 12:55:33;;;;;;;6.20;3.28;;;11.80;92.70;;;;;;5014184;28;20040;-81
2021/05/08 12:58:13;;;;;;;6.25;3.45;;;11.80;92.60;;;;;;5049300;28;20029;-82
2021/05/08 13:00:51;;;;;;;5.75;3.50;;;11.80;92.50;;;;;;5032966;28;20040;-81
2021/05/08 13:06:08;;;;;;;5.38;3.42;;;11.80;93.10;;;;;;5014960;28;695667;-81